sensor_id;sensor_type;location;lat;lon;timestamp;pressure;altitude;pressure_sealevel;temperature;humidity
48424;BME280;34232;42.502;26.014;2023-04-27T00:00:35;99468.56;;;12.54;76.33
48424;BME280;34232;42.502;26.014;2023-04-27T00:03:00;99484.19;;;12.47;77.55
48424;BME280;34232;42.502;26.014;2023-04-27T00:05:29;99486.47;;;12.42;77.84
48424;BME280;34232;42.502;26.014;2023-04-27T00:07:54;99485.47;;;12.43;78.51
48424;BME280;34232;42.502;26.014;2023-04-27T00:10:20;99484.25;;;12.38;78.87
48424;BME280;34232;42.502;26.014;2023-04-27T00:12:45;99492.03;;;12.39;78.56
48424;BME280;34232;42.502;26.014;2023-04-27T00:15:10;99495.44;;;12.32;80.33
48424;BME280;34232;42.502;26.014;2023-04-27T00:17:36;99499.94;;;12.21;80.02
48424;BME280;34232;42.502;26.014;2023-04-27T00:20:01;99498.13;;;12.22;80.13
48424;BME280;34232;42.502;26.014;2023-04-27T00:22:29;99504.19;;;12.14;81.98
48424;BME280;34232;42.502;26.014;2023-04-27T00:24:56;99509.47;;;12.14;82.31
48424;BME280;34232;42.502;26.014;2023-04-27T00:27:21;99509.47;;;12.14;80.66
48424;BME280;34232;42.502;26.014;2023-04-27T00:29:46;99516.16;;;12.09;82.09
48424;BME280;34232;42.502;26.014;2023-04-27T00:32:12;99521.25;;;11.93;80.28
48424;BME280;34232;42.502;26.014;2023-04-27T00:34:37;99518.63;;;11.93;79.30
48424;BME280;34232;42.502;26.014;2023-04-27T00:37:03;99522.47;;;11.98;80.73
48424;BME280;34232;42.502;26.014;2023-04-27T00:39:28;99518.63;;;11.93;80.82
48424;BME280;34232;42.502;26.014;2023-04-27T00:41:54;99528.56;;;11.81;81.25
48424;BME280;34232;42.502;26.014;2023-04-27T00:44:26;99534.94;;;11.78;79.94
48424;BME280;34232;42.502;26.014;2023-04-27T00:46:51;99528.00;;;11.77;80.20
48424;BME280;34232;42.502;26.014;2023-04-27T00:49:18;99541.88;;;11.79;80.86
48424;BME280;34232;42.502;26.014;2023-04-27T00:51:43;99539.63;;;11.75;80.35
48424;BME280;34232;42.502;26.014;2023-04-27T00:54:08;99552.28;;;11.71;80.28
48424;BME280;34232;42.502;26.014;2023-04-27T00:56:35;99550.25;;;11.65;80.61
48424;BME280;34232;42.502;26.014;2023-04-27T00:59:00;99559.00;;;11.66;80.74
48424;BME280;34232;42.502;26.014;2023-04-27T01:01:26;99552.06;;;11.55;80.18
48424;BME280;34232;42.502;26.014;2023-04-27T01:03:51;99561.66;;;11.56;80.79
48424;BME280;34232;42.502;26.014;2023-04-27T01:06:17;99550.59;;;11.52;81.45
48424;BME280;34232;42.502;26.014;2023-04-27T01:08:42;99555.59;;;11.46;82.11
48424;BME280;34232;42.502;26.014;2023-04-27T01:11:07;99561.69;;;11.37;81.17
48424;BME280;34232;42.502;26.014;2023-04-27T01:13:32;99565.03;;;11.39;81.85
48424;BME280;34232;42.502;26.014;2023-04-27T01:15:58;99571.69;;;11.43;82.49
48424;BME280;34232;42.502;26.014;2023-04-27T01:18:23;99570.63;;;11.36;80.69
48424;BME280;34232;42.502;26.014;2023-04-27T01:20:48;99580.97;;;11.37;81.08
48424;BME280;34232;42.502;26.014;2023-04-27T01:23:14;99583.25;;;11.32;81.21
48424;BME280;34232;42.502;26.014;2023-04-27T01:25:39;99583.38;;;11.31;82.21
48424;BME280;34232;42.502;26.014;2023-04-27T01:28:05;99585.88;;;11.22;81.13
48424;BME280;34232;42.502;26.014;2023-04-27T01:30:30;99591.44;;;11.10;79.50
48424;BME280;34232;42.502;26.014;2023-04-27T01:32:55;99592.56;;;11.07;79.90
48424;BME280;34232;42.502;26.014;2023-04-27T01:35:21;99593.13;;;11.01;80.40
48424;BME280;34232;42.502;26.014;2023-04-27T01:37:46;99603.13;;;10.98;81.31
48424;BME280;34232;42.502;26.014;2023-04-27T01:40:12;99609.63;;;11.03;85.89
48424;BME280;34232;42.502;26.014;2023-04-27T01:42:37;99605.63;;;10.99;84.92
48424;BME280;34232;42.502;26.014;2023-04-27T01:45:02;99615.72;;;10.94;83.82
48424;BME280;34232;42.502;26.014;2023-04-27T01:47:28;99610.06;;;10.99;82.84
48424;BME280;34232;42.502;26.014;2023-04-27T01:49:53;99618.09;;;10.97;82.24
48424;BME280;34232;42.502;26.014;2023-04-27T01:52:18;99614.75;;;11.05;82.52
48424;BME280;34232;42.502;26.014;2023-04-27T01:54:44;99619.47;;;11.11;79.08
48424;BME280;34232;42.502;26.014;2023-04-27T01:57:09;99626.94;;;11.15;80.85
48424;BME280;34232;42.502;26.014;2023-04-27T01:59:34;99636.94;;;11.02;83.83
48424;BME280;34232;42.502;26.014;2023-04-27T02:02:00;99637.50;;;10.96;85.02
48424;BME280;34232;42.502;26.014;2023-04-27T02:04:25;99638.06;;;11.00;85.65
48424;BME280;34232;42.502;26.014;2023-04-27T02:06:50;99639.72;;;10.81;84.17
48424;BME280;34232;42.502;26.014;2023-04-27T02:09:15;99634.69;;;10.88;86.68
48424;BME280;34232;42.502;26.014;2023-04-27T02:11:41;99638.16;;;10.88;85.69
48424;BME280;34232;42.502;26.014;2023-04-27T02:14:06;99635.28;;;10.82;84.62
48424;BME280;34232;42.502;26.014;2023-04-27T02:16:32;99637.75;;;10.93;86.93
48424;BME280;34232;42.502;26.014;2023-04-27T02:18:57;99646.09;;;10.98;86.18
48424;BME280;34232;42.502;26.014;2023-04-27T02:21:23;99648.16;;;11.04;87.81
48424;BME280;34232;42.502;26.014;2023-04-27T02:23:48;99656.75;;;11.06;85.10
48424;BME280;34232;42.502;26.014;2023-04-27T02:26:17;99659.09;;;11.09;86.16
48424;BME280;34232;42.502;26.014;2023-04-27T02:28:43;99664.50;;;11.08;83.99
48424;BME280;34232;42.502;26.014;2023-04-27T02:31:08;99665.75;;;11.23;85.24
48424;BME280;34232;42.502;26.014;2023-04-27T02:33:34;99664.09;;;11.32;84.38
48424;BME280;34232;42.502;26.014;2023-04-27T02:35:59;99670.44;;;11.39;85.75
48424;BME280;34232;42.502;26.014;2023-04-27T02:38:24;99657.97;;;11.41;85.81
48424;BME280;34232;42.502;26.014;2023-04-27T02:40:53;99665.72;;;11.42;83.85
48424;BME280;34232;42.502;26.014;2023-04-27T02:43:19;99670.59;;;11.47;82.94
48424;BME280;34232;42.502;26.014;2023-04-27T02:45:44;99674.34;;;11.44;79.80
48424;BME280;34232;42.502;26.014;2023-04-27T02:48:09;99679.91;;;11.32;79.47
48424;BME280;34232;42.502;26.014;2023-04-27T02:50:39;99689.88;;;11.38;80.46
48424;BME280;34232;42.502;26.014;2023-04-27T02:53:04;99695.13;;;11.38;79.36
48424;BME280;34232;42.502;26.014;2023-04-27T02:55:30;99682.66;;;11.40;82.15
48424;BME280;34232;42.502;26.014;2023-04-27T02:57:55;99696.09;;;11.37;81.16
48424;BME280;34232;42.502;26.014;2023-04-27T03:00:21;99697.38;;;11.33;82.75
48424;BME280;34232;42.502;26.014;2023-04-27T03:02:46;99698.75;;;11.37;84.54
48424;BME280;34232;42.502;26.014;2023-04-27T03:05:12;99710.97;;;11.18;82.20
48424;BME280;34232;42.502;26.014;2023-04-27T03:07:37;99724.28;;;11.17;81.52
48424;BME280;34232;42.502;26.014;2023-04-27T03:10:02;99725.63;;;10.92;79.51
48424;BME280;34232;42.502;26.014;2023-04-27T03:12:28;99733.84;;;11.08;81.97
48424;BME280;34232;42.502;26.014;2023-04-27T03:14:53;99727.06;;;11.15;84.02
48424;BME280;34232;42.502;26.014;2023-04-27T03:17:18;99736.19;;;11.11;85.03
48424;BME280;34232;42.502;26.014;2023-04-27T03:19:45;99744.81;;;11.13;83.68
48424;BME280;34232;42.502;26.014;2023-04-27T03:22:11;99740.34;;;11.04;80.73
48424;BME280;34232;42.502;26.014;2023-04-27T03:24:36;99749.91;;;11.05;81.14
48424;BME280;34232;42.502;26.014;2023-04-27T03:27:01;99755.34;;;11.04;81.67
48424;BME280;34232;42.502;26.014;2023-04-27T03:29:27;99753.09;;;10.99;82.44
48424;BME280;34232;42.502;26.014;2023-04-27T03:31:52;99754.59;;;10.82;79.66
48424;BME280;34232;42.502;26.014;2023-04-27T03:34:17;99760.53;;;10.75;80.34
48424;BME280;34232;42.502;26.014;2023-04-27T03:36:44;99773.28;;;10.70;81.37
48424;BME280;34232;42.502;26.014;2023-04-27T03:39:10;99772.69;;;10.66;82.44
48424;BME280;34232;42.502;26.014;2023-04-27T03:41:35;99771.00;;;10.56;81.94
48424;BME280;34232;42.502;26.014;2023-04-27T03:44:01;99776.94;;;10.58;82.56
48424;BME280;34232;42.502;26.014;2023-04-27T03:46:26;99774.63;;;10.55;83.45
48424;BME280;34232;42.502;26.014;2023-04-27T03:48:51;99771.28;;;10.52;81.18
48424;BME280;34232;42.502;26.014;2023-04-27T03:51:16;99773.47;;;10.47;80.84
48424;BME280;34232;42.502;26.014;2023-04-27T03:53:42;99778.88;;;10.56;82.73
48424;BME280;34232;42.502;26.014;2023-04-27T03:56:07;99784.59;;;10.61;84.02
48424;BME280;34232;42.502;26.014;2023-04-27T03:58:32;99783.22;;;10.66;81.25
48424;BME280;34232;42.502;26.014;2023-04-27T04:00:58;99794.84;;;10.64;81.28
48424;BME280;34232;42.502;26.014;2023-04-27T04:03:23;99790.88;;;10.79;82.29
48424;BME280;34232;42.502;26.014;2023-04-27T04:05:48;99793.13;;;10.83;82.22
48424;BME280;34232;42.502;26.014;2023-04-27T04:08:13;99799.50;;;10.81;84.19
48424;BME280;34232;42.502;26.014;2023-04-27T04:10:39;99807.38;;;10.81;83.85
48424;BME280;34232;42.502;26.014;2023-04-27T04:13:04;99803.78;;;10.82;83.52
48424;BME280;34232;42.502;26.014;2023-04-27T04:15:29;99804.63;;;10.92;83.83
48424;BME280;34232;42.502;26.014;2023-04-27T04:17:55;99804.13;;;10.98;83.87
48424;BME280;34232;42.502;26.014;2023-04-27T04:20:20;99798.59;;;11.01;84.10
48424;BME280;34232;42.502;26.014;2023-04-27T04:22:46;99810.50;;;11.05;84.14
48424;BME280;34232;42.502;26.014;2023-04-27T04:25:11;99812.97;;;10.97;81.91
48424;BME280;34232;42.502;26.014;2023-04-27T04:27:37;99815.34;;;11.00;78.47
48424;BME280;34232;42.502;26.014;2023-04-27T04:30:03;99811.88;;;11.09;79.21
48424;BME280;34232;42.502;26.014;2023-04-27T04:32:30;99816.06;;;11.02;80.78
48424;BME280;34232;42.502;26.014;2023-04-27T04:34:55;99822.81;;;10.95;80.89
48424;BME280;34232;42.502;26.014;2023-04-27T04:37:21;99828.72;;;10.78;79.23
48424;BME280;34232;42.502;26.014;2023-04-27T04:39:47;99821.25;;;10.83;82.78
48424;BME280;34232;42.502;26.014;2023-04-27T04:42:12;99831.09;;;10.81;81.35
48424;BME280;34232;42.502;26.014;2023-04-27T04:44:37;99835.38;;;10.82;78.50
48424;BME280;34232;42.502;26.014;2023-04-27T04:47:03;99837.31;;;10.80;79.33
48424;BME280;34232;42.502;26.014;2023-04-27T04:49:28;99842.00;;;10.76;80.97
48424;BME280;34232;42.502;26.014;2023-04-27T04:51:54;99841.19;;;10.76;78.37
48424;BME280;34232;42.502;26.014;2023-04-27T04:54:19;99845.72;;;10.74;77.82
48424;BME280;34232;42.502;26.014;2023-04-27T04:56:45;99844.22;;;10.71;77.44
48424;BME280;34232;42.502;26.014;2023-04-27T04:59:10;99851.72;;;10.76;79.48
48424;BME280;34232;42.502;26.014;2023-04-27T05:01:35;99860.91;;;10.91;79.80
48424;BME280;34232;42.502;26.014;2023-04-27T05:04:01;99864.81;;;10.97;78.14
48424;BME280;34232;42.502;26.014;2023-04-27T05:06:26;99864.69;;;10.98;75.49
48424;BME280;34232;42.502;26.014;2023-04-27T05:08:51;99855.97;;;11.07;76.46
48424;BME280;34232;42.502;26.014;2023-04-27T05:11:20;99856.00;;;11.17;78.73
48424;BME280;34232;42.502;26.014;2023-04-27T05:13:46;99861.81;;;11.20;80.19
48424;BME280;34232;42.502;26.014;2023-04-27T05:16:11;99858.22;;;11.21;80.19
48424;BME280;34232;42.502;26.014;2023-04-27T05:18:37;99862.13;;;11.17;82.15
48424;BME280;34232;42.502;26.014;2023-04-27T05:21:02;99859.75;;;11.14;81.82
48424;BME280;34232;42.502;26.014;2023-04-27T05:23:27;99859.88;;;11.13;82.69
48424;BME280;34232;42.502;26.014;2023-04-27T05:25:53;99864.56;;;11.09;83.21
48424;BME280;34232;42.502;26.014;2023-04-27T05:28:18;99867.59;;;11.05;82.47
48424;BME280;34232;42.502;26.014;2023-04-27T05:30:43;99866.00;;;11.13;81.86
48424;BME280;34232;42.502;26.014;2023-04-27T05:33:08;99872.22;;;11.12;81.60
48424;BME280;34232;42.502;26.014;2023-04-27T05:35:34;99868.75;;;11.21;80.86
48424;BME280;34232;42.502;26.014;2023-04-27T05:37:59;99867.97;;;11.31;80.71
48424;BME280;34232;42.502;26.014;2023-04-27T05:40:24;99870.22;;;11.35;78.94
48424;BME280;34232;42.502;26.014;2023-04-27T05:42:50;99870.47;;;11.42;78.18
48424;BME280;34232;42.502;26.014;2023-04-27T05:45:15;99871.88;;;11.46;76.80
48424;BME280;34232;42.502;26.014;2023-04-27T05:47:41;99864.41;;;11.51;75.88
48424;BME280;34232;42.502;26.014;2023-04-27T05:50:06;99876.31;;;11.55;75.00
48424;BME280;34232;42.502;26.014;2023-04-27T05:52:32;99879.69;;;11.67;75.59
48424;BME280;34232;42.502;26.014;2023-04-27T05:54:57;99876.25;;;11.76;74.55
48424;BME280;34232;42.502;26.014;2023-04-27T05:57:23;99886.38;;;11.80;74.39
48424;BME280;34232;42.502;26.014;2023-04-27T05:59:48;99880.53;;;11.86;73.38
48424;BME280;34232;42.502;26.014;2023-04-27T06:02:13;99886.09;;;11.93;73.87
48424;BME280;34232;42.502;26.014;2023-04-27T06:04:38;99891.25;;;11.95;72.60
48424;BME280;34232;42.502;26.014;2023-04-27T06:07:07;99883.06;;;11.98;73.18
48424;BME280;34232;42.502;26.014;2023-04-27T06:09:33;99887.88;;;12.02;71.48
48424;BME280;34232;42.502;26.014;2023-04-27T06:11:58;99894.84;;;11.94;73.12
48424;BME280;34232;42.502;26.014;2023-04-27T06:14:23;99886.38;;;12.00;73.23
48424;BME280;34232;42.502;26.014;2023-04-27T06:16:49;99892.47;;;12.10;73.47
48424;BME280;34232;42.502;26.014;2023-04-27T06:19:17;99892.22;;;12.13;71.06
48424;BME280;34232;42.502;26.014;2023-04-27T06:21:42;99887.19;;;12.19;69.26
48424;BME280;34232;42.502;26.014;2023-04-27T06:24:07;99890.38;;;12.23;69.96
48424;BME280;34232;42.502;26.014;2023-04-27T06:26:36;99893.03;;;12.23;70.45
48424;BME280;34232;42.502;26.014;2023-04-27T06:29:01;99895.25;;;12.27;71.80
48424;BME280;34232;42.502;26.014;2023-04-27T06:31:28;99897.16;;;12.35;71.22
48424;BME280;34232;42.502;26.014;2023-04-27T06:33:53;99893.28;;;12.39;68.07
48424;BME280;34232;42.502;26.014;2023-04-27T06:36:18;99897.16;;;12.45;68.28
48424;BME280;34232;42.502;26.014;2023-04-27T06:38:44;99891.84;;;12.54;68.36
48424;BME280;34232;42.502;26.014;2023-04-27T06:41:10;99898.38;;;12.60;67.24
48424;BME280;34232;42.502;26.014;2023-04-27T06:43:38;99894.03;;;12.69;70.98
48424;BME280;34232;42.502;26.014;2023-04-27T06:46:03;99899.31;;;12.78;66.97
48424;BME280;34232;42.502;26.014;2023-04-27T06:48:29;99902.88;;;12.87;68.65
48424;BME280;34232;42.502;26.014;2023-04-27T06:50:54;99902.31;;;12.93;64.90
48424;BME280;34232;42.502;26.014;2023-04-27T06:53:19;99897.72;;;12.95;65.86
48424;BME280;34232;42.502;26.014;2023-04-27T06:55:45;99911.41;;;13.08;67.34
48424;BME280;34232;42.502;26.014;2023-04-27T06:58:11;99900.38;;;13.22;66.62
48424;BME280;34232;42.502;26.014;2023-04-27T07:00:36;99900.69;;;13.47;66.40
48424;BME280;34232;42.502;26.014;2023-04-27T07:03:01;99899.94;;;13.72;65.46
48424;BME280;34232;42.502;26.014;2023-04-27T07:05:26;99904.13;;;13.92;66.24
48424;BME280;34232;42.502;26.014;2023-04-27T07:07:52;99903.78;;;14.13;60.14
48424;BME280;34232;42.502;26.014;2023-04-27T07:10:17;99907.34;;;14.22;58.79
48424;BME280;34232;42.502;26.014;2023-04-27T07:12:43;99904.13;;;14.36;58.43
48424;BME280;34232;42.502;26.014;2023-04-27T07:15:08;99908.31;;;14.56;56.99
48424;BME280;34232;42.502;26.014;2023-04-27T07:17:33;99907.72;;;14.70;58.53
48424;BME280;34232;42.502;26.014;2023-04-27T07:20:00;99910.31;;;14.88;57.45
48424;BME280;34232;42.502;26.014;2023-04-27T07:22:25;99908.22;;;15.00;56.39
48424;BME280;34232;42.502;26.014;2023-04-27T07:24:50;99911.19;;;14.97;55.02
48424;BME280;34232;42.502;26.014;2023-04-27T07:27:16;99916.75;;;14.86;55.28
48424;BME280;34232;42.502;26.014;2023-04-27T07:29:41;99914.41;;;14.83;54.16
48424;BME280;34232;42.502;26.014;2023-04-27T07:32:07;99909.16;;;14.91;56.43
48424;BME280;34232;42.502;26.014;2023-04-27T07:34:33;99913.94;;;14.87;55.59
48424;BME280;34232;42.502;26.014;2023-04-27T07:36:58;99907.00;;;14.86;55.87
48424;BME280;34232;42.502;26.014;2023-04-27T07:39:24;99908.44;;;14.81;54.03
48424;BME280;34232;42.502;26.014;2023-04-27T07:41:50;99912.06;;;14.80;55.07
48424;BME280;34232;42.502;26.014;2023-04-27T07:44:18;99905.19;;;14.95;55.16
48424;BME280;34232;42.502;26.014;2023-04-27T07:46:44;99916.72;;;15.12;53.65
48424;BME280;34232;42.502;26.014;2023-04-27T07:49:11;99912.31;;;15.28;55.73
48424;BME280;34232;42.502;26.014;2023-04-27T07:51:37;99915.69;;;15.38;55.05
48424;BME280;34232;42.502;26.014;2023-04-27T07:54:02;99920.84;;;15.48;55.02
48424;BME280;34232;42.502;26.014;2023-04-27T07:56:28;99924.97;;;15.43;52.93
48424;BME280;34232;42.502;26.014;2023-04-27T07:58:53;99918.13;;;15.32;53.21
48424;BME280;34232;42.502;26.014;2023-04-27T08:01:18;99925.63;;;15.36;53.75
48424;BME280;34232;42.502;26.014;2023-04-27T08:03:45;99921.31;;;15.35;53.52
48424;BME280;34232;42.502;26.014;2023-04-27T08:06:10;99932.22;;;15.32;53.93
48424;BME280;34232;42.502;26.014;2023-04-27T08:08:35;99933.56;;;15.36;55.30
48424;BME280;34232;42.502;26.014;2023-04-27T08:11:00;99931.25;;;15.33;53.98
48424;BME280;34232;42.502;26.014;2023-04-27T08:13:26;99934.03;;;15.32;56.29
48424;BME280;34232;42.502;26.014;2023-04-27T08:15:51;99939.94;;;15.18;54.55
48424;BME280;34232;42.502;26.014;2023-04-27T08:18:22;99940.25;;;15.07;54.38
48424;BME280;34232;42.502;26.014;2023-04-27T08:20:47;99932.06;;;15.00;55.69
48424;BME280;34232;42.502;26.014;2023-04-27T08:23:12;99933.06;;;14.99;56.02
48424;BME280;34232;42.502;26.014;2023-04-27T08:25:38;99935.34;;;14.94;54.60
48424;BME280;34232;42.502;26.014;2023-04-27T08:28:03;99934.69;;;14.92;55.55
48424;BME280;34232;42.502;26.014;2023-04-27T08:30:28;99935.69;;;14.91;56.62
48424;BME280;34232;42.502;26.014;2023-04-27T08:32:53;99936.84;;;14.96;58.87
48424;BME280;34232;42.502;26.014;2023-04-27T08:35:19;99937.00;;;14.95;56.85
48424;BME280;34232;42.502;26.014;2023-04-27T08:37:44;99943.97;;;14.96;57.55
48424;BME280;34232;42.502;26.014;2023-04-27T08:40:09;99945.94;;;14.94;57.08
48424;BME280;34232;42.502;26.014;2023-04-27T08:42:35;99943.66;;;14.99;57.97
48424;BME280;34232;42.502;26.014;2023-04-27T08:45:00;99937.69;;;14.97;55.84
48424;BME280;34232;42.502;26.014;2023-04-27T08:47:26;99938.72;;;15.04;56.83
48424;BME280;34232;42.502;26.014;2023-04-27T08:49:51;99940.41;;;15.13;53.76
48424;BME280;34232;42.502;26.014;2023-04-27T08:52:17;99940.72;;;15.10;55.44
48424;BME280;34232;42.502;26.014;2023-04-27T08:54:42;99930.53;;;15.23;55.20
48424;BME280;34232;42.502;26.014;2023-04-27T08:57:08;99927.59;;;15.34;56.01
48424;BME280;34232;42.502;26.014;2023-04-27T08:59:33;99935.09;;;15.39;53.61
48424;BME280;34232;42.502;26.014;2023-04-27T09:02:00;99937.66;;;15.57;53.06
48424;BME280;34232;42.502;26.014;2023-04-27T09:04:34;99935.38;;;15.70;53.12
48424;BME280;34232;42.502;26.014;2023-04-27T09:07:08;99935.38;;;15.70;50.86
48424;BME280;34232;42.502;26.014;2023-04-27T09:09:34;99928.72;;;15.58;53.19
48424;BME280;34232;42.502;26.014;2023-04-27T09:11:59;99933.34;;;15.64;54.59
48424;BME280;34232;42.502;26.014;2023-04-27T09:14:26;99934.63;;;15.52;51.57
48424;BME280;34232;42.502;26.014;2023-04-27T09:16:55;99937.91;;;15.46;52.03
48424;BME280;34232;42.502;26.014;2023-04-27T09:19:24;99941.31;;;15.30;52.03
48424;BME280;34232;42.502;26.014;2023-04-27T09:21:50;99940.84;;;15.34;52.90
48424;BME280;34232;42.502;26.014;2023-04-27T09:24:15;99943.22;;;15.46;52.51
48424;BME280;34232;42.502;26.014;2023-04-27T09:26:41;99928.28;;;15.36;53.37
48424;BME280;34232;42.502;26.014;2023-04-27T09:29:13;99939.94;;;15.52;53.53
48424;BME280;34232;42.502;26.014;2023-04-27T09:31:38;99934.63;;;15.52;53.80
48424;BME280;34232;42.502;26.014;2023-04-27T09:34:03;99935.44;;;15.52;50.52
48424;BME280;34232;42.502;26.014;2023-04-27T09:36:29;99934.03;;;15.58;52.23
48424;BME280;34232;42.502;26.014;2023-04-27T09:38:54;99930.03;;;15.62;54.99
48424;BME280;34232;42.502;26.014;2023-04-27T09:41:20;99926.38;;;15.63;52.38
48424;BME280;34232;42.502;26.014;2023-04-27T09:43:46;99926.25;;;15.72;52.47
48424;BME280;34232;42.502;26.014;2023-04-27T09:46:14;99918.63;;;15.78;51.39
48424;BME280;34232;42.502;26.014;2023-04-27T09:48:40;99917.16;;;15.83;51.09
48424;BME280;34232;42.502;26.014;2023-04-27T09:51:05;99913.84;;;15.89;53.27
48424;BME280;34232;42.502;26.014;2023-04-27T10:03:32;99916.66;;;16.44;50.20
48424;BME280;34232;42.502;26.014;2023-04-27T10:08:51;99915.19;;;16.50;53.54
48424;BME280;34232;42.502;26.014;2023-04-27T10:11:16;99921.47;;;16.57;50.97
48424;BME280;34232;42.502;26.014;2023-04-27T10:13:51;99920.16;;;16.53;51.67
48424;BME280;34232;42.502;26.014;2023-04-27T10:16:17;99921.47;;;16.57;50.93
48424;BME280;34232;42.502;26.014;2023-04-27T10:18:49;99920.81;;;16.47;49.77
48424;BME280;34232;42.502;26.014;2023-04-27T10:21:15;99913.88;;;16.38;50.38
48424;BME280;34232;42.502;26.014;2023-04-27T10:23:47;99923.66;;;16.37;50.20
48424;BME280;34232;42.502;26.014;2023-04-27T10:26:20;99909.03;;;16.50;49.69
48424;BME280;34232;42.502;26.014;2023-04-27T10:28:54;99907.19;;;16.58;51.96
48424;BME280;34232;42.502;26.014;2023-04-27T10:31:25;99905.84;;;16.78;49.70
48424;BME280;34232;42.502;26.014;2023-04-27T10:33:51;99900.47;;;17.03;47.30
48424;BME280;34232;42.502;26.014;2023-04-27T10:36:16;99910.63;;;17.38;49.26
48424;BME280;34232;42.502;26.014;2023-04-27T10:38:41;99899.72;;;17.64;47.65
48424;BME280;34232;42.502;26.014;2023-04-27T10:41:12;99895.59;;;17.85;47.57
48424;BME280;34232;42.502;26.014;2023-04-27T10:43:38;99900.94;;;17.85;46.84
48424;BME280;34232;42.502;26.014;2023-04-27T10:46:21;99899.72;;;17.87;47.41
48424;BME280;34232;42.502;26.014;2023-04-27T10:48:46;99903.38;;;17.86;45.79
48424;BME280;34232;42.502;26.014;2023-04-27T10:51:15;99901.75;;;17.85;45.86
48424;BME280;34232;42.502;26.014;2023-04-27T10:53:41;99903.88;;;17.90;45.45
48424;BME280;34232;42.502;26.014;2023-04-27T10:56:06;99899.72;;;17.87;44.67
48424;BME280;34232;42.502;26.014;2023-04-27T10:58:32;99896.59;;;17.53;43.03
48424;BME280;34232;42.502;26.014;2023-04-27T11:00:58;99896.22;;;17.56;45.97
48424;BME280;34232;42.502;26.014;2023-04-27T11:03:23;99895.78;;;17.52;46.66
48424;BME280;34232;42.502;26.014;2023-04-27T11:05:57;99909.28;;;17.42;46.95
48424;BME280;34232;42.502;26.014;2023-04-27T11:08:23;99899.03;;;17.31;47.58
48424;BME280;34232;42.502;26.014;2023-04-27T11:10:49;99908.63;;;17.40;46.89
48424;BME280;34232;42.502;26.014;2023-04-27T11:13:18;99900.09;;;17.53;48.60
48424;BME280;34232;42.502;26.014;2023-04-27T11:15:51;99890.38;;;17.60;46.50
48424;BME280;34232;42.502;26.014;2023-04-27T11:18:17;99893.56;;;17.64;45.45
48424;BME280;34232;42.502;26.014;2023-04-27T11:20:46;99886.91;;;17.68;46.35
48424;BME280;34232;42.502;26.014;2023-04-27T11:23:25;99887.31;;;17.79;46.34
48424;BME280;34232;42.502;26.014;2023-04-27T11:25:50;99895.00;;;17.97;46.59
48424;BME280;34232;42.502;26.014;2023-04-27T11:28:17;99892.41;;;18.12;47.03
48424;BME280;34232;42.502;26.014;2023-04-27T11:30:43;99902.09;;;18.28;46.52
48424;BME280;34232;42.502;26.014;2023-04-27T11:33:08;99892.94;;;18.45;43.02
48424;BME280;34232;42.502;26.014;2023-04-27T11:35:34;99900.16;;;18.59;42.44
48424;BME280;34232;42.502;26.014;2023-04-27T11:37:59;99899.81;;;18.62;44.78
48424;BME280;34232;42.502;26.014;2023-04-27T11:40:24;99895.78;;;18.66;45.15
48424;BME280;34232;42.502;26.014;2023-04-27T11:42:58;99899.91;;;18.83;43.05
48424;BME280;34232;42.502;26.014;2023-04-27T11:45:24;99894.38;;;19.00;42.92
48424;BME280;34232;42.502;26.014;2023-04-27T11:47:49;99900.19;;;18.88;43.16
48424;BME280;34232;42.502;26.014;2023-04-27T11:50:15;99898.34;;;18.74;42.92
48424;BME280;34232;42.502;26.014;2023-04-27T11:52:40;99894.47;;;18.77;42.87
48424;BME280;34232;42.502;26.014;2023-04-27T11:55:06;99889.22;;;18.69;43.87
48424;BME280;34232;42.502;26.014;2023-04-27T11:57:33;99885.66;;;18.76;43.60
48424;BME280;34232;42.502;26.014;2023-04-27T12:00:00;99891.47;;;18.80;43.12
48424;BME280;34232;42.502;26.014;2023-04-27T12:02:26;99890.28;;;18.82;43.29
48424;BME280;34232;42.502;26.014;2023-04-27T12:04:52;99891.00;;;18.76;43.52
48424;BME280;34232;42.502;26.014;2023-04-27T12:07:17;99887.50;;;18.53;43.22
48424;BME280;34232;42.502;26.014;2023-04-27T12:09:43;99883.44;;;18.65;43.77
48424;BME280;34232;42.502;26.014;2023-04-27T12:12:09;99886.16;;;18.57;42.48
48424;BME280;34232;42.502;26.014;2023-04-27T12:14:35;99884.84;;;18.53;43.79
48424;BME280;34232;42.502;26.014;2023-04-27T12:17:00;99889.28;;;18.46;43.43
48424;BME280;34232;42.502;26.014;2023-04-27T12:19:26;99878.59;;;18.46;43.65
48424;BME280;34232;42.502;26.014;2023-04-27T12:21:51;99884.28;;;18.43;45.24
48424;BME280;34232;42.502;26.014;2023-04-27T12:24:18;99886.66;;;18.38;43.04
48424;BME280;34232;42.502;26.014;2023-04-27T12:26:43;99886.09;;;18.28;42.92
48424;BME280;34232;42.502;26.014;2023-04-27T12:29:09;99876.50;;;18.18;42.10
48424;BME280;34232;42.502;26.014;2023-04-27T12:31:35;99877.25;;;18.12;45.02
48424;BME280;34232;42.502;26.014;2023-04-27T12:34:00;99881.88;;;17.96;42.55
48424;BME280;34232;42.502;26.014;2023-04-27T12:36:25;99881.03;;;17.95;43.04
48424;BME280;34232;42.502;26.014;2023-04-27T12:38:51;99879.72;;;17.91;43.06
48424;BME280;34232;42.502;26.014;2023-04-27T12:41:17;99877.72;;;17.93;44.96
48424;BME280;34232;42.502;26.014;2023-04-27T12:43:42;99876.06;;;17.92;45.11
48424;BME280;34232;42.502;26.014;2023-04-27T12:46:09;99872.38;;;17.93;44.74
48424;BME280;34232;42.502;26.014;2023-04-27T12:48:35;99877.19;;;17.75;43.08
48424;BME280;34232;42.502;26.014;2023-04-27T12:51:00;99876.31;;;17.82;42.91
48424;BME280;34232;42.502;26.014;2023-04-27T12:53:26;99874.75;;;17.88;43.91
48424;BME280;34232;42.502;26.014;2023-04-27T12:55:52;99873.69;;;17.97;44.32